createdAt,value
2018-09-06T00:00:50.675Z,100769.56
2018-09-06T00:03:19.000Z,100769.32
2018-09-06T00:05:47.486Z,100764.60
2018-09-06T00:08:15.840Z,100761.63
2018-09-06T00:10:44.251Z,100754.84
2018-09-06T00:13:12.536Z,100749.27
2018-09-06T00:15:40.869Z,100750.19
2018-09-06T00:18:09.199Z,100748.25
2018-09-06T00:20:37.607Z,100749.06
2018-09-06T00:23:06.425Z,100744.25
2018-09-06T00:25:35.153Z,100748.25
2018-09-06T00:28:03.711Z,100743.49
2018-09-06T00:30:32.037Z,100743.07
2018-09-06T00:33:00.381Z,100733.83
2018-09-06T00:35:28.672Z,100736.07
2018-09-06T00:37:57.049Z,100742.31
2018-09-06T00:40:25.429Z,100738.52
2018-09-06T00:42:53.869Z,100735.01
2018-09-06T00:45:22.241Z,100731.61
2018-09-06T00:47:50.577Z,100730.07
2018-09-06T00:50:20.946Z,100730.43
2018-09-06T00:52:51.399Z,100727.82
2018-09-06T00:55:20.276Z,100725.58
2018-09-06T00:57:48.605Z,100726.78
2018-09-06T01:00:16.985Z,100732.11
2018-09-06T01:02:45.505Z,100741.44
2018-09-06T01:05:14.043Z,100747.38
2018-09-06T01:07:42.335Z,100745.66
2018-09-06T01:10:10.651Z,100731.33
2018-09-06T01:12:38.988Z,100722.02
2018-09-06T01:15:07.333Z,100721.95
2018-09-06T01:17:35.743Z,100739.31
2018-09-06T01:20:04.168Z,100737.07
2018-09-06T01:22:32.576Z,100733.89
2018-09-06T01:25:00.897Z,100719.63
2018-09-06T01:27:29.197Z,100723.32
2018-09-06T01:30:04.204Z,100722.11
2018-09-06T01:32:32.726Z,100709.39
2018-09-06T01:35:01.022Z,100713.91
2018-09-06T01:37:29.326Z,100713.09
2018-09-06T01:39:57.603Z,100703.12
2018-09-06T01:42:25.917Z,100701.06
2018-09-06T01:44:54.242Z,100708.42
2018-09-06T01:47:22.530Z,100723.59
2018-09-06T01:49:50.853Z,100701.52
2018-09-06T01:52:19.191Z,100698.82
2018-09-06T01:54:47.580Z,100707.80
2018-09-06T01:57:15.902Z,100705.66
2018-09-06T01:59:44.430Z,100691.09
2018-09-06T02:02:12.739Z,100699.48
2018-09-06T02:04:41.041Z,100690.16
2018-09-06T02:07:09.389Z,100690.67
2018-09-06T02:09:37.709Z,100691.48
2018-09-06T02:12:06.029Z,100686.38
2018-09-06T02:14:34.647Z,100691.06
2018-09-06T02:17:02.978Z,100687.97
2018-09-06T02:19:31.318Z,100699.26
2018-09-06T02:21:59.745Z,100695.27
2018-09-06T02:24:28.129Z,100691.66
2018-09-06T02:26:56.407Z,100693.08
2018-09-06T02:29:24.745Z,100689.47
2018-09-06T02:31:53.031Z,100688.31
2018-09-06T02:34:21.333Z,100686.47
2018-09-06T02:36:49.629Z,100682.99
2018-09-06T02:39:17.952Z,100680.72
2018-09-06T02:41:46.264Z,100682.26
2018-09-06T02:44:14.572Z,100672.13
2018-09-06T02:46:42.890Z,100675.09
2018-09-06T02:49:11.285Z,100671.83
2018-09-06T02:51:39.660Z,100668.69
2018-09-06T02:54:07.987Z,100663.45
2018-09-06T02:56:36.338Z,100666.11
2018-09-06T02:59:04.771Z,100655.98
2018-09-06T03:01:33.101Z,100659.66
2018-09-06T03:04:01.402Z,100650.86
2018-09-06T03:06:29.730Z,100648.71
2018-09-06T03:08:58.092Z,100642.88
2018-09-06T03:11:31.619Z,100639.27
2018-09-06T03:13:59.884Z,100655.13
2018-09-06T03:16:28.298Z,100653.36
2018-09-06T03:18:56.611Z,100648.94
2018-09-06T03:21:24.890Z,100648.38
2018-09-06T03:23:53.192Z,100655.30
2018-09-06T03:26:21.517Z,100657.87
2018-09-06T03:28:50.844Z,100660.19
2018-09-06T03:31:19.176Z,100671.17
2018-09-06T03:33:47.784Z,100679.77
2018-09-06T03:36:16.362Z,100683.45
2018-09-06T03:38:45.281Z,100691.44
2018-09-06T03:41:13.595Z,100691.95
2018-09-06T03:43:41.946Z,100688.95
2018-09-06T03:46:10.391Z,100686.06
2018-09-06T03:48:38.851Z,100686.32
2018-09-06T03:51:07.443Z,100685.76
2018-09-06T03:53:36.161Z,100678.57
2018-09-06T03:56:04.530Z,100673.63
2018-09-06T03:58:32.944Z,100688.00
2018-09-06T04:01:01.359Z,100678.08
2018-09-06T04:03:29.631Z,100676.03
2018-09-06T04:05:57.969Z,100673.38
2018-09-06T04:08:26.287Z,100666.59
2018-09-06T04:10:54.976Z,100669.59
2018-09-06T04:13:23.237Z,100669.59
2018-09-06T04:15:51.561Z,100677.87
2018-09-06T04:18:19.884Z,100674.39
2018-09-06T04:20:48.260Z,100673.38
2018-09-06T04:23:16.582Z,100679.34
2018-09-06T04:25:44.888Z,100679.12
2018-09-06T04:28:13.259Z,100680.80
2018-09-06T04:30:41.571Z,100681.92
2018-09-06T04:33:09.876Z,100679.09
2018-09-06T04:35:38.196Z,100673.63
2018-09-06T04:38:06.537Z,100669.20
2018-09-06T04:40:34.830Z,100665.91
2018-09-06T04:43:03.135Z,100669.89
2018-09-06T04:45:31.483Z,100681.36
2018-09-06T04:47:59.756Z,100674.27
2018-09-06T04:50:28.049Z,100680.30
2018-09-06T04:52:56.363Z,100680.83
2018-09-06T04:55:24.773Z,100679.88
2018-09-06T04:57:53.195Z,100682.23
2018-09-06T05:00:21.475Z,100683.94
2018-09-06T05:02:49.783Z,100684.76
2018-09-06T05:05:18.097Z,100690.89
2018-09-06T05:07:46.501Z,100689.39
2018-09-06T05:10:14.814Z,100698.83
2018-09-06T05:12:43.135Z,100700.27
2018-09-06T05:15:11.485Z,100696.74
2018-09-06T05:17:39.912Z,100698.34
2018-09-06T05:20:08.224Z,100705.22
2018-09-06T05:22:36.521Z,100716.81
2018-09-06T05:25:04.892Z,100721.75
2018-09-06T05:27:33.200Z,100721.88
2018-09-06T05:30:01.540Z,100714.98
2018-09-06T05:32:30.165Z,100721.56
2018-09-06T05:34:58.497Z,100725.78
2018-09-06T05:37:26.833Z,100718.64
2018-09-06T05:39:55.177Z,100720.33
2018-09-06T05:42:23.470Z,100718.53
2018-09-06T05:44:51.769Z,100720.95
2018-09-06T05:47:20.209Z,100719.84
2018-09-06T05:49:48.433Z,100721.52
2018-09-06T05:52:16.833Z,100719.92
2018-09-06T05:54:45.226Z,100715.27
2018-09-06T05:57:13.662Z,100703.42
2018-09-06T05:59:42.025Z,100701.46
2018-09-06T06:02:10.256Z,100691.13
2018-09-06T06:04:38.588Z,100689.95
2018-09-06T06:07:07.053Z,100684.55
2018-09-06T06:09:35.396Z,100688.08
2018-09-06T06:12:03.719Z,100693.84
2018-09-06T06:14:32.108Z,100692.43
2018-09-06T06:17:00.476Z,100695.96
2018-09-06T06:19:28.794Z,100704.39
2018-09-06T06:21:57.136Z,100707.89
2018-09-06T06:24:25.446Z,100707.93
2018-09-06T06:26:53.723Z,100702.59
2018-09-06T06:29:21.989Z,100686.36
2018-09-06T06:31:50.304Z,100689.33
2018-09-06T06:34:18.621Z,100689.14
2018-09-06T06:36:46.958Z,100688.92
2018-09-06T06:39:15.379Z,100675.58
2018-09-06T06:41:43.684Z,100661.72
2018-09-06T06:44:12.039Z,100654.92
2018-09-06T06:46:40.310Z,100644.13
2018-09-06T06:49:08.709Z,100632.52
2018-09-06T06:51:37.033Z,100624.84
2018-09-06T06:54:05.435Z,100625.44
2018-09-06T06:56:33.745Z,100633.86
2018-09-06T06:59:02.043Z,100629.34
2018-09-06T07:01:30.446Z,100626.90
2018-09-06T07:03:58.775Z,100622.67
2018-09-06T07:06:27.112Z,100625.45
2018-09-06T07:08:55.494Z,100630.09
2018-09-06T07:11:23.810Z,100634.70
2018-09-06T07:13:52.104Z,100634.96
2018-09-06T07:16:20.617Z,100642.95
2018-09-06T07:18:48.993Z,100644.47
2018-09-06T07:21:17.415Z,100654.48
2018-09-06T07:23:45.745Z,100655.98
2018-09-06T07:26:14.077Z,100646.27
2018-09-06T07:28:42.386Z,100644.52
2018-09-06T07:31:10.784Z,100647.12
2018-09-06T07:33:39.166Z,100650.09
2018-09-06T07:36:07.525Z,100656.87
2018-09-06T07:38:35.851Z,100655.70
2018-09-06T07:41:04.189Z,100648.20
2018-09-06T07:43:32.503Z,100650.06
2018-09-06T07:46:00.817Z,100651.98
2018-09-06T07:48:29.140Z,100650.97
2018-09-06T07:50:57.500Z,100659.28
2018-09-06T07:53:25.915Z,100658.79
2018-09-06T07:55:54.227Z,100662.92
2018-09-06T07:58:22.529Z,100661.42
2018-09-06T08:00:51.001Z,100666.92
2018-09-06T08:03:19.431Z,100671.36
2018-09-06T08:05:47.753Z,100672.05
2018-09-06T08:08:16.117Z,100678.54
2018-09-06T08:10:44.445Z,100676.68
2018-09-06T08:13:12.744Z,100684.41
2018-09-06T08:15:41.045Z,100687.69
2018-09-06T08:18:09.358Z,100690.35
2018-09-06T08:20:37.719Z,100687.70
2018-09-06T08:23:06.043Z,100687.64
2018-09-06T08:25:34.405Z,100686.91
2018-09-06T08:28:02.699Z,100693.19
2018-09-06T08:30:31.117Z,100690.86
2018-09-06T08:32:59.425Z,100690.64
2018-09-06T08:35:27.740Z,100692.28
2018-09-06T08:37:56.114Z,100685.32
2018-09-06T08:40:24.413Z,100677.72
2018-09-06T08:42:52.815Z,100677.53
2018-09-06T08:45:21.218Z,100676.80
2018-09-06T08:47:49.514Z,100676.73
2018-09-06T08:50:17.849Z,100673.95
2018-09-06T08:52:46.196Z,100675.98
2018-09-06T08:55:14.602Z,100676.73
2018-09-06T08:57:42.915Z,100671.91
2018-09-06T09:00:11.304Z,100682.58
2018-09-06T09:02:40.129Z,100669.12
2018-09-06T09:05:08.385Z,100675.17
2018-09-06T09:07:36.724Z,100674.87
2018-09-06T09:10:05.720Z,100671.39
2018-09-06T09:12:34.124Z,100678.88
2018-09-06T09:15:02.424Z,100678.66
2018-09-06T09:17:31.168Z,100673.13
2018-09-06T09:19:59.481Z,100657.23
2018-09-06T09:22:27.972Z,100664.80
2018-09-06T09:24:56.177Z,100655.89
2018-09-06T09:27:24.478Z,100657.41
2018-09-06T09:29:52.833Z,100648.17
2018-09-06T09:32:21.119Z,100657.70
2018-09-06T09:34:49.423Z,100654.33
2018-09-06T09:37:17.792Z,100643.55
2018-09-06T09:39:46.179Z,100647.77
2018-09-06T09:42:14.497Z,100647.95
2018-09-06T09:44:42.854Z,100644.47
2018-09-06T09:49:38.652Z,100645.81
2018-09-06T09:52:07.096Z,100649.10
2018-09-06T09:54:35.366Z,100651.45
2018-09-06T09:57:03.785Z,100652.07
2018-09-06T09:59:32.075Z,100654.52
2018-09-06T10:02:05.884Z,100655.96
2018-09-06T10:04:39.260Z,100661.30
2018-09-06T10:07:12.983Z,100659.66
2018-09-06T10:09:41.283Z,100661.00
2018-09-06T10:12:09.637Z,100658.52
2018-09-06T10:14:37.914Z,100660.70
2018-09-06T10:17:06.261Z,100662.12
2018-09-06T10:19:34.582Z,100659.45
2018-09-06T10:22:02.939Z,100655.03
2018-09-06T10:24:31.217Z,100653.00
2018-09-06T10:26:59.551Z,100659.27
2018-09-06T10:29:27.955Z,100658.64
2018-09-06T10:31:56.285Z,100657.23
2018-09-06T10:34:24.617Z,100657.41
2018-09-06T10:36:53.016Z,100654.97
2018-09-06T10:39:21.397Z,100648.89
2018-09-06T10:41:49.680Z,100646.33
2018-09-06T10:44:17.997Z,100644.59
2018-09-06T10:46:46.321Z,100647.66
2018-09-06T10:49:14.627Z,100648.48
2018-09-06T10:51:42.997Z,100650.73
2018-09-06T10:54:11.459Z,100651.84
2018-09-06T10:56:39.794Z,100644.47
2018-09-06T10:59:08.096Z,100640.34
2018-09-06T11:01:36.460Z,100644.67
2018-09-06T11:04:04.889Z,100644.45
2018-09-06T11:06:33.195Z,100643.83
2018-09-06T11:09:01.547Z,100641.60
2018-09-06T11:11:30.104Z,100643.65
2018-09-06T11:14:04.717Z,100648.69
2018-09-06T11:16:33.027Z,100648.98
2018-09-06T11:19:01.353Z,100649.28
2018-09-06T11:21:29.795Z,100639.75
2018-09-06T11:23:58.164Z,100642.31
2018-09-06T11:26:26.476Z,100645.80
2018-09-06T11:28:54.762Z,100639.64
2018-09-06T11:31:23.053Z,100636.67
2018-09-06T11:33:51.536Z,100638.50
2018-09-06T11:36:19.815Z,100633.16
2018-09-06T11:38:48.160Z,100634.83
2018-09-06T11:41:16.465Z,100635.42
2018-09-06T11:43:44.745Z,100632.27
2018-09-06T11:46:13.069Z,100638.49
2018-09-06T11:48:41.371Z,100642.01
2018-09-06T11:51:09.901Z,100643.64
2018-09-06T11:53:38.176Z,100647.02
2018-09-06T11:56:07.064Z,100646.95
2018-09-06T11:58:35.395Z,100649.92
2018-09-06T12:01:03.898Z,100645.70
2018-09-06T12:03:32.291Z,100635.95
2018-09-06T12:06:00.631Z,100633.20
2018-09-06T12:08:28.897Z,100631.14
2018-09-06T12:10:57.219Z,100626.33
2018-09-06T12:13:25.528Z,100624.58
2018-09-06T12:15:53.852Z,100628.28
2018-09-06T12:18:22.204Z,100619.55
2018-09-06T12:20:50.530Z,100615.88
2018-09-06T12:23:18.879Z,100622.12
2018-09-06T12:25:47.488Z,100613.50
2018-09-06T12:28:15.840Z,100620.87
2018-09-06T12:30:44.114Z,100616.27
2018-09-06T12:33:12.416Z,100617.27
2018-09-06T12:35:40.735Z,100617.14
2018-09-06T12:38:09.021Z,100620.95
2018-09-06T12:40:37.391Z,100614.14
2018-09-06T12:43:05.753Z,100610.80
2018-09-06T12:45:34.046Z,100610.47
2018-09-06T12:48:02.451Z,100616.28
2018-09-06T12:50:30.797Z,100610.42
2018-09-06T12:52:59.090Z,100603.32
2018-09-06T12:55:27.731Z,100607.42
2018-09-06T12:57:56.020Z,100602.25
2018-09-06T13:00:24.348Z,100599.44
2018-09-06T13:02:52.713Z,100599.21
2018-09-06T13:05:20.997Z,100597.61
2018-09-06T13:07:49.334Z,100587.91
2018-09-06T13:10:17.726Z,100583.63
2018-09-06T13:12:46.172Z,100585.74
2018-09-06T13:15:14.536Z,100573.66
2018-09-06T13:17:42.821Z,100572.36
2018-09-06T13:20:11.148Z,100572.25
2018-09-06T13:22:39.448Z,100571.06
2018-09-06T13:25:07.919Z,100571.15
2018-09-06T13:27:36.227Z,100572.07
2018-09-06T13:30:04.625Z,100568.13
2018-09-06T13:32:32.971Z,100574.02
2018-09-06T13:35:01.296Z,100569.33
2018-09-06T13:37:29.647Z,100567.97
2018-09-06T13:39:57.969Z,100560.09
2018-09-06T13:42:26.266Z,100558.98
2018-09-06T13:44:54.603Z,100557.20
2018-09-06T13:47:22.957Z,100557.65
2018-09-06T13:49:51.255Z,100554.60
2018-09-06T13:52:19.629Z,100554.22
2018-09-06T13:54:47.896Z,100546.57
2018-09-06T13:57:16.211Z,100551.39
2018-09-06T13:59:44.540Z,100547.35
2018-09-06T14:02:12.878Z,100542.82
2018-09-06T14:04:41.239Z,100542.50
2018-09-06T14:07:09.567Z,100546.31
2018-09-06T14:09:37.955Z,100545.78
2018-09-06T14:12:06.993Z,100543.57
2018-09-06T14:14:35.286Z,100539.70
2018-09-06T14:17:03.725Z,100534.80
2018-09-06T14:19:32.047Z,100533.39
2018-09-06T14:22:00.717Z,100524.39
2018-09-06T14:24:29.198Z,100522.61
2018-09-06T14:26:57.808Z,100514.21
2018-09-06T14:29:26.179Z,100513.77
2018-09-06T14:31:54.492Z,100512.11
2018-09-06T14:34:22.965Z,100506.39
2018-09-06T14:36:51.314Z,100502.53
2018-09-06T14:39:19.665Z,100495.91
2018-09-06T14:41:47.962Z,100494.70
2018-09-06T14:44:16.259Z,100488.17
2018-09-06T14:46:44.583Z,100483.17
2018-09-06T14:49:12.862Z,100485.61
2018-09-06T14:51:41.147Z,100486.59
2018-09-06T14:54:09.471Z,100487.10
2018-09-06T14:56:37.875Z,100485.81
2018-09-06T14:59:06.236Z,100486.12
2018-09-06T15:01:34.807Z,100480.33
2018-09-06T15:04:03.080Z,100478.19
2018-09-06T15:06:31.492Z,100477.22
2018-09-06T15:08:59.803Z,100471.45
2018-09-06T15:11:28.209Z,100473.08
2018-09-06T15:13:56.525Z,100472.17
2018-09-06T15:16:24.848Z,100466.77
2018-09-06T15:18:53.154Z,100467.80
2018-09-06T15:21:21.547Z,100459.93
2018-09-06T15:23:49.859Z,100450.03
2018-09-06T15:26:18.165Z,100449.80
2018-09-06T15:28:46.560Z,100451.75
2018-09-06T15:31:14.857Z,100451.30
2018-09-06T15:33:43.228Z,100450.13
2018-09-06T15:36:11.566Z,100449.31
2018-09-06T15:38:39.911Z,100447.30
2018-09-06T15:41:08.229Z,100438.05
2018-09-06T15:43:36.541Z,100444.83
2018-09-06T15:46:05.211Z,100434.13
2018-09-06T15:48:33.527Z,100434.88
2018-09-06T15:51:02.017Z,100429.13
2018-09-06T15:53:33.612Z,100427.80
2018-09-06T15:56:01.935Z,100426.77
2018-09-06T15:58:30.236Z,100431.89
2018-09-06T16:00:58.568Z,100431.36
2018-09-06T16:03:26.886Z,100427.22
2018-09-06T16:05:55.208Z,100428.55
2018-09-06T16:08:23.939Z,100433.91
2018-09-06T16:10:52.254Z,100432.57
2018-09-06T16:13:20.808Z,100430.70
2018-09-06T16:15:49.149Z,100430.94
2018-09-06T16:18:17.464Z,100428.11
2018-09-06T16:20:45.807Z,100427.34
2018-09-06T16:23:14.148Z,100426.62
2018-09-06T16:25:42.509Z,100429.58
2018-09-06T16:28:11.382Z,100434.13
2018-09-06T16:30:39.707Z,100434.48
2018-09-06T16:33:08.046Z,100440.80
2018-09-06T16:35:36.409Z,100450.13
2018-09-06T16:38:04.683Z,100437.19
2018-09-06T16:40:33.134Z,100445.05
2018-09-06T16:43:01.461Z,100443.30
2018-09-06T16:45:29.767Z,100437.81
2018-09-06T16:47:58.100Z,100444.05
2018-09-06T16:51:56.834Z,100443.73
2018-09-06T16:54:25.178Z,100444.09
2018-09-06T16:56:53.460Z,100439.61
2018-09-06T16:59:21.792Z,100443.19
2018-09-06T17:01:50.077Z,100446.80
2018-09-06T17:04:18.418Z,100446.56
2018-09-06T17:06:46.734Z,100446.99
2018-09-06T17:09:15.064Z,100445.80
2018-09-06T17:11:43.403Z,100448.19
2018-09-06T17:14:11.768Z,100449.95
2018-09-06T17:16:40.108Z,100449.34
2018-09-06T17:19:08.468Z,100455.73
2018-09-06T17:21:37.436Z,100457.79
2018-09-06T17:24:05.755Z,100465.52
2018-09-06T17:26:34.080Z,100465.95
2018-09-06T17:29:02.408Z,100463.50
2018-09-06T17:31:30.769Z,100468.95
2018-09-06T17:33:59.154Z,100477.20
2018-09-06T17:36:27.498Z,100466.94
2018-09-06T17:38:55.877Z,100468.51
2018-09-06T17:41:24.393Z,100470.77
2018-09-06T17:43:52.711Z,100473.16
2018-09-06T17:46:21.052Z,100482.97
2018-09-06T17:48:49.494Z,100483.59
2018-09-06T17:51:17.791Z,100480.63
2018-09-06T17:53:46.101Z,100483.67
2018-09-06T17:56:14.457Z,100487.09
2018-09-06T17:58:42.790Z,100488.76
2018-09-06T18:01:21.842Z,100484.66
2018-09-06T18:03:50.192Z,100484.03
2018-09-06T18:06:18.610Z,100474.30
2018-09-06T18:08:46.930Z,100475.96
2018-09-06T18:12:51.029Z,100472.56
2018-09-06T18:15:19.352Z,100480.06
2018-09-06T18:17:47.799Z,100472.25
2018-09-06T18:20:16.025Z,100466.11
2018-09-06T18:22:44.339Z,100465.81
2018-09-06T18:25:12.668Z,100460.48
2018-09-06T18:27:41.122Z,100465.59
2018-09-06T18:30:09.419Z,100464.56
2018-09-06T18:32:37.822Z,100468.07
2018-09-06T18:35:06.168Z,100464.27
2018-09-06T18:37:34.561Z,100471.44
2018-09-06T18:40:02.926Z,100478.92
2018-09-06T18:42:31.255Z,100491.42
2018-09-06T18:44:59.627Z,100483.62
2018-09-06T18:47:27.942Z,100486.50
2018-09-06T18:49:56.251Z,100494.49
2018-09-06T18:52:24.582Z,100497.45
2018-09-06T18:54:53.215Z,100496.94
2018-09-06T18:57:21.549Z,100506.78
2018-09-06T18:59:49.820Z,100499.82
2018-09-06T19:02:18.148Z,100498.19
2018-09-06T19:04:46.475Z,100499.19
2018-09-06T19:07:14.773Z,100500.04
2018-09-06T19:09:44.047Z,100494.80
2018-09-06T19:12:12.389Z,100496.12
2018-09-06T19:14:40.764Z,100484.47
2018-09-06T19:17:09.094Z,100481.47
2018-09-06T19:19:37.397Z,100488.95
2018-09-06T19:22:05.727Z,100487.02
2018-09-06T19:24:34.034Z,100486.20
2018-09-06T19:27:02.328Z,100481.06
2018-09-06T19:29:30.662Z,100490.09
2018-09-06T19:31:59.148Z,100485.98
2018-09-06T19:34:27.330Z,100483.02
2018-09-06T19:36:55.612Z,100479.42
2018-09-06T19:39:23.939Z,100489.78
2018-09-06T19:41:52.338Z,100495.81
2018-09-06T19:44:20.636Z,100496.00
2018-09-06T19:46:48.979Z,100495.30
2018-09-06T19:49:17.296Z,100501.03
2018-09-06T19:51:45.622Z,100504.63
2018-09-06T19:54:14.078Z,100498.49
2018-09-06T19:56:42.376Z,100509.16
2018-09-06T19:59:10.710Z,100507.72
2018-09-06T20:01:40.277Z,100511.20
2018-09-06T20:04:08.664Z,100511.42
2018-09-06T20:06:37.018Z,100519.81
2018-09-06T20:09:06.693Z,100523.59
2018-09-06T20:11:35.064Z,100520.21
2018-09-06T20:14:03.404Z,100523.16
2018-09-06T20:16:31.716Z,100522.45
2018-09-06T20:19:00.090Z,100525.88
2018-09-06T20:21:28.438Z,100524.63
2018-09-06T20:23:56.758Z,100531.09
2018-09-06T20:26:26.243Z,100528.59
2018-09-06T20:28:54.580Z,100528.90
2018-09-06T20:31:22.905Z,100531.02
2018-09-06T20:33:51.376Z,100531.59
2018-09-06T20:36:19.593Z,100530.48
2018-09-06T20:38:48.028Z,100533.84
2018-09-06T20:41:16.375Z,100533.93
2018-09-06T20:43:44.743Z,100535.34
2018-09-06T20:46:13.025Z,100539.86
2018-09-06T20:48:41.395Z,100540.12
2018-09-06T20:51:09.751Z,100538.28
2018-09-06T20:53:38.060Z,100534.50
2018-09-06T20:56:06.333Z,100537.25
2018-09-06T20:58:34.864Z,100534.47
2018-09-06T21:01:03.236Z,100531.81
2018-09-06T21:03:31.575Z,100538.13
2018-09-06T21:05:59.849Z,100525.55
2018-09-06T21:08:28.178Z,100530.23
2018-09-06T21:10:56.447Z,100533.80
2018-09-06T21:13:24.742Z,100536.84
2018-09-06T21:15:53.017Z,100543.83
2018-09-06T21:18:21.320Z,100542.80
2018-09-06T21:20:49.870Z,100545.37
2018-09-06T21:23:18.214Z,100550.70
2018-09-06T21:25:46.545Z,100555.63
2018-09-06T21:28:14.876Z,100555.63
2018-09-06T21:30:43.290Z,100546.53
2018-09-06T21:33:11.620Z,100554.69
2018-09-06T21:35:39.934Z,100550.91
2018-09-06T21:38:08.308Z,100552.84
2018-09-06T21:40:36.634Z,100550.31
2018-09-06T21:43:05.053Z,100556.45
2018-09-06T21:45:33.366Z,100551.52
2018-09-06T21:48:01.732Z,100556.66
2018-09-06T21:50:30.071Z,100561.47
2018-09-06T21:52:58.381Z,100559.32
2018-09-06T21:55:26.709Z,100556.11
2018-09-06T21:57:54.991Z,100560.27
2018-09-06T22:00:23.342Z,100562.55
2018-09-06T22:02:56.834Z,100564.64
2018-09-06T22:05:25.161Z,100568.25
2018-09-06T22:07:53.440Z,100567.52
2018-09-06T22:10:22.715Z,100570.81
2018-09-06T22:12:52.428Z,100571.84
2018-09-06T22:15:23.980Z,100567.52
2018-09-06T22:17:52.301Z,100572.84
2018-09-06T22:20:20.628Z,100570.35
2018-09-06T22:22:48.935Z,100568.69
2018-09-06T22:25:17.297Z,100569.84
2018-09-06T22:27:45.616Z,100564.64
2018-09-06T22:30:14.037Z,100566.79
2018-09-06T22:32:42.347Z,100568.94
2018-09-06T22:35:10.624Z,100566.27
2018-09-06T22:37:38.937Z,100571.91
2018-09-06T22:40:07.284Z,100568.42
2018-09-06T22:42:35.832Z,100573.83
2018-09-06T22:45:05.594Z,100573.53
2018-09-06T22:47:33.905Z,100572.67
2018-09-06T22:50:02.300Z,100566.88
2018-09-06T22:52:30.594Z,100572.80
2018-09-06T22:54:58.936Z,100571.30
2018-09-06T22:57:27.321Z,100569.96
2018-09-06T22:59:55.665Z,100572.80
2018-09-06T23:02:27.716Z,100573.95
2018-09-06T23:04:56.037Z,100567.09
2018-09-06T23:07:24.347Z,100555.84
2018-09-06T23:09:52.718Z,100560.65
2018-09-06T23:12:20.995Z,100562.08
2018-09-06T23:14:49.335Z,100562.28
2018-09-06T23:17:17.625Z,100565.77
2018-09-06T23:19:45.998Z,100556.66
2018-09-06T23:22:14.355Z,100556.33
2018-09-06T23:24:42.660Z,100552.55
2018-09-06T23:27:10.973Z,100547.61
2018-09-06T23:29:39.321Z,100548.13
2018-09-06T23:32:07.649Z,100542.80
2018-09-06T23:34:36.302Z,100546.37
2018-09-06T23:37:05.282Z,100547.27
2018-09-06T23:39:33.956Z,100548.17
2018-09-06T23:42:02.579Z,100549.72
2018-09-06T23:44:30.849Z,100550.83
2018-09-06T23:46:59.437Z,100545.26
2018-09-06T23:49:27.912Z,100547.10
2018-09-06T23:51:56.216Z,100547.02
2018-09-06T23:54:24.565Z,100543.84
2018-09-06T23:56:53.113Z,100546.50
2018-09-06T23:59:21.426Z,100547.74
